sensor_id;sensor_type;location;lat;lon;timestamp;pressure;altitude;pressure_sealevel;temperature
48628;BMP280;34424;52.234;6.500;2023-12-28T00:03:48;100661.8;;;7.02
48628;BMP280;34424;52.234;6.500;2023-12-28T00:08:49;100661.7;;;7.07
48628;BMP280;34424;52.234;6.500;2023-12-28T00:13:49;100639.5;;;7.08
48628;BMP280;34424;52.234;6.500;2023-12-28T00:18:48;100650;;;7.11
48628;BMP280;34424;52.234;6.500;2023-12-28T00:23:49;100637.4;;;7.29
48628;BMP280;34424;52.234;6.500;2023-12-28T00:28:48;100661.7;;;7.39
48628;BMP280;34424;52.234;6.500;2023-12-28T00:33:49;100675.6;;;7.44
48628;BMP280;34424;52.234;6.500;2023-12-28T00:38:49;100687.7;;;7.5
48628;BMP280;34424;52.234;6.500;2023-12-28T00:43:49;100684.8;;;7.43
48628;BMP280;34424;52.234;6.500;2023-12-28T00:48:49;100701.5;;;7.56
48628;BMP280;34424;52.234;6.500;2023-12-28T00:53:49;100711.1;;;7.72
48628;BMP280;34424;52.234;6.500;2023-12-28T00:58:49;100703.6;;;7.69
48628;BMP280;34424;52.234;6.500;2023-12-28T01:03:49;100718.6;;;7.74
48628;BMP280;34424;52.234;6.500;2023-12-28T01:08:49;100719;;;7.71
48628;BMP280;34424;52.234;6.500;2023-12-28T01:13:49;100726.9;;;7.75
48628;BMP280;34424;52.234;6.500;2023-12-28T01:18:49;100726.4;;;7.77
48628;BMP280;34424;52.234;6.500;2023-12-28T01:23:49;100723.9;;;7.82
48628;BMP280;34424;52.234;6.500;2023-12-28T01:28:49;100722.5;;;7.79
48628;BMP280;34424;52.234;6.500;2023-12-28T01:33:49;100723.9;;;7.68
48628;BMP280;34424;52.234;6.500;2023-12-28T01:38:49;100734.5;;;7.6
48628;BMP280;34424;52.234;6.500;2023-12-28T01:43:49;100734.2;;;7.74
48628;BMP280;34424;52.234;6.500;2023-12-28T01:48:49;100741.6;;;7.73
48628;BMP280;34424;52.234;6.500;2023-12-28T01:53:49;100750;;;7.71
48628;BMP280;34424;52.234;6.500;2023-12-28T01:58:49;100747.2;;;7.8
48628;BMP280;34424;52.234;6.500;2023-12-28T02:03:49;100754.8;;;7.72
48628;BMP280;34424;52.234;6.500;2023-12-28T02:08:49;100759.2;;;7.75
48628;BMP280;34424;52.234;6.500;2023-12-28T02:13:49;100764.1;;;7.73
48628;BMP280;34424;52.234;6.500;2023-12-28T02:18:49;100742.3;;;7.82
48628;BMP280;34424;52.234;6.500;2023-12-28T02:23:51;100741.9;;;7.71
48628;BMP280;34424;52.234;6.500;2023-12-28T02:28:49;100739.6;;;7.73
48628;BMP280;34424;52.234;6.500;2023-12-28T02:33:50;100744.1;;;7.76
48628;BMP280;34424;52.234;6.500;2023-12-28T02:38:49;100734.1;;;7.85
48628;BMP280;34424;52.234;6.500;2023-12-28T02:43:50;100733.6;;;7.85
48628;BMP280;34424;52.234;6.500;2023-12-28T02:48:49;100725.3;;;7.77
48628;BMP280;34424;52.234;6.500;2023-12-28T02:53:49;100724.2;;;7.63
48628;BMP280;34424;52.234;6.500;2023-12-28T02:58:49;100718.5;;;7.69
48628;BMP280;34424;52.234;6.500;2023-12-28T03:03:49;100727.9;;;7.59
48628;BMP280;34424;52.234;6.500;2023-12-28T03:08:49;100717.2;;;7.65
48628;BMP280;34424;52.234;6.500;2023-12-28T03:13:49;100718.2;;;7.56
48628;BMP280;34424;52.234;6.500;2023-12-28T03:18:49;100724;;;7.49
48628;BMP280;34424;52.234;6.500;2023-12-28T03:23:49;100711.2;;;7.51
48628;BMP280;34424;52.234;6.500;2023-12-28T03:28:49;100703.7;;;7.41
48628;BMP280;34424;52.234;6.500;2023-12-28T03:33:49;100709.4;;;7.67
48628;BMP280;34424;52.234;6.500;2023-12-28T03:38:49;100709.8;;;7.69
48628;BMP280;34424;52.234;6.500;2023-12-28T03:43:49;100715.9;;;7.63
48628;BMP280;34424;52.234;6.500;2023-12-28T03:48:49;100704;;;7.77
48628;BMP280;34424;52.234;6.500;2023-12-28T03:53:49;100704.7;;;7.8
48628;BMP280;34424;52.234;6.500;2023-12-28T03:58:49;100707;;;7.92
48628;BMP280;34424;52.234;6.500;2023-12-28T04:03:49;100714.5;;;8.01
48628;BMP280;34424;52.234;6.500;2023-12-28T04:08:49;100728.6;;;7.96
48628;BMP280;34424;52.234;6.500;2023-12-28T04:13:49;100727.8;;;8.11
48628;BMP280;34424;52.234;6.500;2023-12-28T04:18:49;100734.1;;;8.23
48628;BMP280;34424;52.234;6.500;2023-12-28T04:23:49;100726.1;;;8.17
48628;BMP280;34424;52.234;6.500;2023-12-28T04:28:49;100727.5;;;8.19
48628;BMP280;34424;52.234;6.500;2023-12-28T04:33:49;100720.7;;;8.29
48628;BMP280;34424;52.234;6.500;2023-12-28T04:38:49;100723.3;;;8.25
48628;BMP280;34424;52.234;6.500;2023-12-28T04:43:49;100712.5;;;8.26
48628;BMP280;34424;52.234;6.500;2023-12-28T04:48:49;100700.2;;;8.24
48628;BMP280;34424;52.234;6.500;2023-12-28T04:53:49;100697;;;8.2
48628;BMP280;34424;52.234;6.500;2023-12-28T04:58:49;100697;;;8
48628;BMP280;34424;52.234;6.500;2023-12-28T05:03:49;100696.8;;;8
48628;BMP280;34424;52.234;6.500;2023-12-28T05:08:49;100708.9;;;8.09
48628;BMP280;34424;52.234;6.500;2023-12-28T05:13:49;100722.9;;;8.18
48628;BMP280;34424;52.234;6.500;2023-12-28T05:18:49;100724.4;;;8.27
48628;BMP280;34424;52.234;6.500;2023-12-28T05:23:49;100741.8;;;8.34
48628;BMP280;34424;52.234;6.500;2023-12-28T05:28:49;100748.1;;;8.44
48628;BMP280;34424;52.234;6.500;2023-12-28T05:33:49;100747.2;;;8.44
48628;BMP280;34424;52.234;6.500;2023-12-28T05:38:49;100763.7;;;8.53
48628;BMP280;34424;52.234;6.500;2023-12-28T05:43:49;100757.7;;;8.61
48628;BMP280;34424;52.234;6.500;2023-12-28T05:48:49;100746.5;;;8.63
48628;BMP280;34424;52.234;6.500;2023-12-28T05:53:49;100763;;;8.69
48628;BMP280;34424;52.234;6.500;2023-12-28T05:58:49;100756.2;;;8.72
48628;BMP280;34424;52.234;6.500;2023-12-28T06:03:49;100758.1;;;8.69
48628;BMP280;34424;52.234;6.500;2023-12-28T06:08:49;100761.6;;;8.62
48628;BMP280;34424;52.234;6.500;2023-12-28T06:13:49;100736.8;;;8.76
48628;BMP280;34424;52.234;6.500;2023-12-28T06:18:49;100750.2;;;8.79
48628;BMP280;34424;52.234;6.500;2023-12-28T06:23:49;100750.2;;;8.82
48628;BMP280;34424;52.234;6.500;2023-12-28T06:28:49;100767.4;;;8.8
48628;BMP280;34424;52.234;6.500;2023-12-28T06:33:49;100759.1;;;8.91
48628;BMP280;34424;52.234;6.500;2023-12-28T06:38:49;100756.1;;;8.88
48628;BMP280;34424;52.234;6.500;2023-12-28T06:43:49;100772.3;;;8.94
48628;BMP280;34424;52.234;6.500;2023-12-28T06:48:49;100751.9;;;8.94
48628;BMP280;34424;52.234;6.500;2023-12-28T06:53:49;100757.5;;;8.98
48628;BMP280;34424;52.234;6.500;2023-12-28T06:58:49;100767.6;;;8.97
48628;BMP280;34424;52.234;6.500;2023-12-28T07:03:49;100762.1;;;8.95
48628;BMP280;34424;52.234;6.500;2023-12-28T07:08:49;100763.9;;;8.99
48628;BMP280;34424;52.234;6.500;2023-12-28T07:13:49;100757;;;8.99
48628;BMP280;34424;52.234;6.500;2023-12-28T07:18:49;100750.6;;;8.95
48628;BMP280;34424;52.234;6.500;2023-12-28T07:23:49;100765.5;;;8.96
48628;BMP280;34424;52.234;6.500;2023-12-28T07:28:49;100771.5;;;8.93
48628;BMP280;34424;52.234;6.500;2023-12-28T07:33:49;100788;;;8.98
48628;BMP280;34424;52.234;6.500;2023-12-28T07:38:49;100793.8;;;8.98
48628;BMP280;34424;52.234;6.500;2023-12-28T07:43:49;100802.7;;;8.98
48628;BMP280;34424;52.234;6.500;2023-12-28T07:48:49;100824.1;;;9.05
48628;BMP280;34424;52.234;6.500;2023-12-28T07:53:49;100814.3;;;9.06
48628;BMP280;34424;52.234;6.500;2023-12-28T07:58:49;100812.7;;;9.01
48628;BMP280;34424;52.234;6.500;2023-12-28T08:03:49;100806.4;;;8.95
48628;BMP280;34424;52.234;6.500;2023-12-28T08:08:49;100823.8;;;9.14
48628;BMP280;34424;52.234;6.500;2023-12-28T08:13:49;100836.3;;;9.19
48628;BMP280;34424;52.234;6.500;2023-12-28T08:18:49;100842;;;9.19
48628;BMP280;34424;52.234;6.500;2023-12-28T08:23:49;100831;;;9.16
48628;BMP280;34424;52.234;6.500;2023-12-28T08:28:49;100838.4;;;9.17
48628;BMP280;34424;52.234;6.500;2023-12-28T08:33:49;100839;;;9.23
48628;BMP280;34424;52.234;6.500;2023-12-28T08:38:49;100834.1;;;9.24
48628;BMP280;34424;52.234;6.500;2023-12-28T08:43:49;100826.8;;;9.22
48628;BMP280;34424;52.234;6.500;2023-12-28T08:48:49;100832.5;;;9.19
48628;BMP280;34424;52.234;6.500;2023-12-28T08:53:49;100832.8;;;9.2
48628;BMP280;34424;52.234;6.500;2023-12-28T08:58:49;100846.4;;;9.17
48628;BMP280;34424;52.234;6.500;2023-12-28T09:03:49;100844.1;;;9.18
48628;BMP280;34424;52.234;6.500;2023-12-28T09:08:49;100834.2;;;9.21
48628;BMP280;34424;52.234;6.500;2023-12-28T09:13:49;100845;;;9.32
48628;BMP280;34424;52.234;6.500;2023-12-28T09:18:49;100870.3;;;9.31
48628;BMP280;34424;52.234;6.500;2023-12-28T09:23:49;100876.9;;;9.32
48628;BMP280;34424;52.234;6.500;2023-12-28T09:28:49;100896.6;;;9.33
48628;BMP280;34424;52.234;6.500;2023-12-28T09:33:49;100878.9;;;9.29
48628;BMP280;34424;52.234;6.500;2023-12-28T09:38:49;100889.4;;;9.31
48628;BMP280;34424;52.234;6.500;2023-12-28T09:43:50;100890;;;9.28
48628;BMP280;34424;52.234;6.500;2023-12-28T09:48:49;100884.3;;;9.27
48628;BMP280;34424;52.234;6.500;2023-12-28T09:53:49;100911;;;9.24
48628;BMP280;34424;52.234;6.500;2023-12-28T09:58:49;100902.2;;;9.28
48628;BMP280;34424;52.234;6.500;2023-12-28T10:03:49;100877.1;;;9.47
48628;BMP280;34424;52.234;6.500;2023-12-28T10:08:49;100883.4;;;9.59
48628;BMP280;34424;52.234;6.500;2023-12-28T10:13:49;100897.8;;;9.5
48628;BMP280;34424;52.234;6.500;2023-12-28T10:18:49;100900.9;;;9.52
48628;BMP280;34424;52.234;6.500;2023-12-28T10:23:49;100884.2;;;9.52
48628;BMP280;34424;52.234;6.500;2023-12-28T10:28:49;100893;;;9.53
48628;BMP280;34424;52.234;6.500;2023-12-28T10:33:49;100890;;;9.51
48628;BMP280;34424;52.234;6.500;2023-12-28T10:38:49;100895.5;;;9.55
48628;BMP280;34424;52.234;6.500;2023-12-28T10:43:52;100895.8;;;9.5
48628;BMP280;34424;52.234;6.500;2023-12-28T10:48:49;100901.8;;;9.54
48628;BMP280;34424;52.234;6.500;2023-12-28T10:53:52;100900.4;;;9.54
48628;BMP280;34424;52.234;6.500;2023-12-28T10:58:50;100887.7;;;9.61
48628;BMP280;34424;52.234;6.500;2023-12-28T11:03:50;100884;;;9.74
48628;BMP280;34424;52.234;6.500;2023-12-28T11:08:49;100887.3;;;9.75
48628;BMP280;34424;52.234;6.500;2023-12-28T11:13:49;100882.4;;;9.67
48628;BMP280;34424;52.234;6.500;2023-12-28T11:18:49;100883.2;;;9.56
48628;BMP280;34424;52.234;6.500;2023-12-28T11:23:49;100876.3;;;9.58
48628;BMP280;34424;52.234;6.500;2023-12-28T11:28:49;100894.6;;;9.47
48628;BMP280;34424;52.234;6.500;2023-12-28T11:33:50;100874;;;9.49
48628;BMP280;34424;52.234;6.500;2023-12-28T11:38:49;100890.2;;;9.56
48628;BMP280;34424;52.234;6.500;2023-12-28T11:43:54;100861.4;;;9.7
48628;BMP280;34424;52.234;6.500;2023-12-28T11:48:49;100872.4;;;9.79
48628;BMP280;34424;52.234;6.500;2023-12-28T11:53:49;100872;;;9.81
48628;BMP280;34424;52.234;6.500;2023-12-28T11:58:49;100863.9;;;9.81
48628;BMP280;34424;52.234;6.500;2023-12-28T12:03:49;100854.8;;;9.92
48628;BMP280;34424;52.234;6.500;2023-12-28T12:08:49;100863.8;;;9.93
48628;BMP280;34424;52.234;6.500;2023-12-28T12:13:49;100863.5;;;9.84
48628;BMP280;34424;52.234;6.500;2023-12-28T12:18:49;100864.1;;;9.69
48628;BMP280;34424;52.234;6.500;2023-12-28T12:23:49;100853;;;9.6
48628;BMP280;34424;52.234;6.500;2023-12-28T12:28:49;100860.9;;;9.66
48628;BMP280;34424;52.234;6.500;2023-12-28T12:33:49;100853.4;;;9.65
48628;BMP280;34424;52.234;6.500;2023-12-28T12:38:49;100851.8;;;9.52
48628;BMP280;34424;52.234;6.500;2023-12-28T12:43:49;100839;;;9.48
48628;BMP280;34424;52.234;6.500;2023-12-28T12:48:57;100834.9;;;9.39
48628;BMP280;34424;52.234;6.500;2023-12-28T12:53:49;100839.8;;;9.37
48628;BMP280;34424;52.234;6.500;2023-12-28T12:58:49;100836.6;;;9.33
48628;BMP280;34424;52.234;6.500;2023-12-28T13:03:49;100823.4;;;9.36
48628;BMP280;34424;52.234;6.500;2023-12-28T13:08:49;100827.1;;;9.32
48628;BMP280;34424;52.234;6.500;2023-12-28T13:13:49;100826.5;;;9.29
48628;BMP280;34424;52.234;6.500;2023-12-28T13:18:49;100816.1;;;9.31
48628;BMP280;34424;52.234;6.500;2023-12-28T13:23:49;100820.4;;;9.26
48628;BMP280;34424;52.234;6.500;2023-12-28T13:28:49;100837.1;;;9.3
48628;BMP280;34424;52.234;6.500;2023-12-28T13:33:49;100836.7;;;9.26
48628;BMP280;34424;52.234;6.500;2023-12-28T13:38:49;100830.2;;;9.35
48628;BMP280;34424;52.234;6.500;2023-12-28T13:43:49;100834.5;;;9.36
48628;BMP280;34424;52.234;6.500;2023-12-28T13:48:49;100827.4;;;9.4
48628;BMP280;34424;52.234;6.500;2023-12-28T13:53:49;100840.1;;;9.36
48628;BMP280;34424;52.234;6.500;2023-12-28T13:58:49;100824.4;;;9.31
48628;BMP280;34424;52.234;6.500;2023-12-28T14:03:49;100814.6;;;9.31
48628;BMP280;34424;52.234;6.500;2023-12-28T14:08:49;100799.6;;;9.32
48628;BMP280;34424;52.234;6.500;2023-12-28T14:13:49;100807.7;;;9.29
48628;BMP280;34424;52.234;6.500;2023-12-28T14:18:49;100805.3;;;9.25
48628;BMP280;34424;52.234;6.500;2023-12-28T14:23:49;100801.3;;;9.28
48628;BMP280;34424;52.234;6.500;2023-12-28T14:28:50;100796.4;;;9.15
48628;BMP280;34424;52.234;6.500;2023-12-28T14:33:50;100802.3;;;9.08
48628;BMP280;34424;52.234;6.500;2023-12-28T14:38:49;100800.3;;;9.01
48628;BMP280;34424;52.234;6.500;2023-12-28T14:43:49;100798.6;;;8.99
48628;BMP280;34424;52.234;6.500;2023-12-28T14:48:49;100803.6;;;8.96
48628;BMP280;34424;52.234;6.500;2023-12-28T14:53:49;100807.1;;;8.95
48628;BMP280;34424;52.234;6.500;2023-12-28T14:58:49;100792.9;;;8.98
48628;BMP280;34424;52.234;6.500;2023-12-28T15:03:49;100794.2;;;8.84
48628;BMP280;34424;52.234;6.500;2023-12-28T15:08:49;100795.7;;;8.84
48628;BMP280;34424;52.234;6.500;2023-12-28T15:13:50;100780.9;;;8.84
48628;BMP280;34424;52.234;6.500;2023-12-28T15:18:50;100790.7;;;8.89
48628;BMP280;34424;52.234;6.500;2023-12-28T15:23:50;100791.4;;;8.9
48628;BMP280;34424;52.234;6.500;2023-12-28T15:28:49;100782.8;;;8.83
48628;BMP280;34424;52.234;6.500;2023-12-28T15:33:49;100777.9;;;8.85
48628;BMP280;34424;52.234;6.500;2023-12-28T15:38:49;100774.4;;;8.83
48628;BMP280;34424;52.234;6.500;2023-12-28T15:43:49;100772.6;;;8.88
48628;BMP280;34424;52.234;6.500;2023-12-28T15:48:49;100777.1;;;8.97
48628;BMP280;34424;52.234;6.500;2023-12-28T15:53:49;100769.6;;;9
48628;BMP280;34424;52.234;6.500;2023-12-28T15:58:49;100764.1;;;9
48628;BMP280;34424;52.234;6.500;2023-12-28T16:03:49;100779.3;;;9.03
48628;BMP280;34424;52.234;6.500;2023-12-28T16:08:49;100772.4;;;9.06
48628;BMP280;34424;52.234;6.500;2023-12-28T16:13:50;100763.8;;;9.01
48628;BMP280;34424;52.234;6.500;2023-12-28T16:18:50;100763.3;;;9.02
48628;BMP280;34424;52.234;6.500;2023-12-28T16:23:50;100768.8;;;8.97
48628;BMP280;34424;52.234;6.500;2023-12-28T16:28:49;100771.4;;;8.93
48628;BMP280;34424;52.234;6.500;2023-12-28T16:33:49;100748.6;;;8.95
48628;BMP280;34424;52.234;6.500;2023-12-28T16:38:49;100746.7;;;8.96
48628;BMP280;34424;52.234;6.500;2023-12-28T16:43:49;100742.4;;;8.91
48628;BMP280;34424;52.234;6.500;2023-12-28T16:48:49;100740.6;;;8.88
48628;BMP280;34424;52.234;6.500;2023-12-28T16:53:49;100743.7;;;8.89
48628;BMP280;34424;52.234;6.500;2023-12-28T16:58:49;100742.3;;;8.93
48628;BMP280;34424;52.234;6.500;2023-12-28T17:03:49;100732.4;;;8.81
48628;BMP280;34424;52.234;6.500;2023-12-28T17:08:49;100735.8;;;8.79
48628;BMP280;34424;52.234;6.500;2023-12-28T17:13:50;100730.1;;;8.74
48628;BMP280;34424;52.234;6.500;2023-12-28T17:18:50;100735.7;;;8.74
48628;BMP280;34424;52.234;6.500;2023-12-28T17:23:51;100734.1;;;8.76
48628;BMP280;34424;52.234;6.500;2023-12-28T17:28:50;100744.4;;;8.76
48628;BMP280;34424;52.234;6.500;2023-12-28T17:33:50;100731;;;8.89
48628;BMP280;34424;52.234;6.500;2023-12-28T17:38:50;100716.1;;;8.89
48628;BMP280;34424;52.234;6.500;2023-12-28T17:43:51;100720.9;;;8.96
48628;BMP280;34424;52.234;6.500;2023-12-28T17:48:51;100726.4;;;8.94
48628;BMP280;34424;52.234;6.500;2023-12-28T17:53:50;100723.4;;;8.95
48628;BMP280;34424;52.234;6.500;2023-12-28T17:58:49;100734.6;;;8.96
48628;BMP280;34424;52.234;6.500;2023-12-28T18:03:49;100713.5;;;9.04
48628;BMP280;34424;52.234;6.500;2023-12-28T18:08:49;100714;;;8.93
48628;BMP280;34424;52.234;6.500;2023-12-28T18:13:49;100707.8;;;8.88
48628;BMP280;34424;52.234;6.500;2023-12-28T18:18:49;100706.3;;;8.8
48628;BMP280;34424;52.234;6.500;2023-12-28T18:23:49;100704.9;;;8.8
48628;BMP280;34424;52.234;6.500;2023-12-28T18:28:49;100707.1;;;8.77
48628;BMP280;34424;52.234;6.500;2023-12-28T18:33:49;100698.3;;;8.85
48628;BMP280;34424;52.234;6.500;2023-12-28T18:38:49;100688.5;;;8.93
48628;BMP280;34424;52.234;6.500;2023-12-28T18:43:49;100686.6;;;8.87
48628;BMP280;34424;52.234;6.500;2023-12-28T18:48:49;100682.1;;;8.71
48628;BMP280;34424;52.234;6.500;2023-12-28T18:53:49;100676.5;;;8.66
48628;BMP280;34424;52.234;6.500;2023-12-28T18:58:49;100655;;;8.59
48628;BMP280;34424;52.234;6.500;2023-12-28T19:03:49;100687.1;;;8.66
48628;BMP280;34424;52.234;6.500;2023-12-28T19:08:49;100677.8;;;8.59
48628;BMP280;34424;52.234;6.500;2023-12-28T19:13:49;100683.3;;;8.65
48628;BMP280;34424;52.234;6.500;2023-12-28T19:18:50;100674.7;;;8.77
48628;BMP280;34424;52.234;6.500;2023-12-28T19:23:49;100671.5;;;8.77
48628;BMP280;34424;52.234;6.500;2023-12-28T19:28:49;100671.6;;;8.74
48628;BMP280;34424;52.234;6.500;2023-12-28T19:33:49;100678.9;;;8.82
48628;BMP280;34424;52.234;6.500;2023-12-28T19:38:49;100684.2;;;8.82
48628;BMP280;34424;52.234;6.500;2023-12-28T19:43:49;100689.8;;;8.87
48628;BMP280;34424;52.234;6.500;2023-12-28T19:48:49;100670;;;8.87
48628;BMP280;34424;52.234;6.500;2023-12-28T19:53:49;100670.7;;;8.84
48628;BMP280;34424;52.234;6.500;2023-12-28T19:58:49;100653.5;;;8.77
48628;BMP280;34424;52.234;6.500;2023-12-28T20:03:49;100656;;;8.75
48628;BMP280;34424;52.234;6.500;2023-12-28T20:08:49;100637.1;;;8.8
48628;BMP280;34424;52.234;6.500;2023-12-28T20:13:49;100643;;;8.79
48628;BMP280;34424;52.234;6.500;2023-12-28T20:18:49;100623.1;;;8.8
48628;BMP280;34424;52.234;6.500;2023-12-28T20:23:49;100636.7;;;8.83
48628;BMP280;34424;52.234;6.500;2023-12-28T20:28:49;100628.4;;;8.78
48628;BMP280;34424;52.234;6.500;2023-12-28T20:33:49;100626.8;;;8.82
48628;BMP280;34424;52.234;6.500;2023-12-28T20:38:49;100621.9;;;8.85
48628;BMP280;34424;52.234;6.500;2023-12-28T20:43:49;100607.8;;;8.82
48628;BMP280;34424;52.234;6.500;2023-12-28T20:48:49;100611.8;;;8.76
48628;BMP280;34424;52.234;6.500;2023-12-28T20:53:49;100606.1;;;8.77
48628;BMP280;34424;52.234;6.500;2023-12-28T20:58:49;100600.2;;;8.74
48628;BMP280;34424;52.234;6.500;2023-12-28T21:03:49;100598.8;;;8.73
48628;BMP280;34424;52.234;6.500;2023-12-28T21:08:49;100593.3;;;8.77
48628;BMP280;34424;52.234;6.500;2023-12-28T21:13:49;100595.3;;;8.76
48628;BMP280;34424;52.234;6.500;2023-12-28T21:18:49;100600.4;;;8.76
48628;BMP280;34424;52.234;6.500;2023-12-28T21:23:50;100599.1;;;8.77
48628;BMP280;34424;52.234;6.500;2023-12-28T21:28:49;100592.8;;;8.75
48628;BMP280;34424;52.234;6.500;2023-12-28T21:33:50;100590.5;;;8.77
48628;BMP280;34424;52.234;6.500;2023-12-28T21:38:49;100590.6;;;8.76
48628;BMP280;34424;52.234;6.500;2023-12-28T21:43:50;100585.2;;;8.81
48628;BMP280;34424;52.234;6.500;2023-12-28T21:48:50;100579.6;;;8.78
48628;BMP280;34424;52.234;6.500;2023-12-28T21:53:49;100569.6;;;8.74
48628;BMP280;34424;52.234;6.500;2023-12-28T21:58:50;100562.3;;;8.71
48628;BMP280;34424;52.234;6.500;2023-12-28T22:03:50;100552.7;;;8.72
48628;BMP280;34424;52.234;6.500;2023-12-28T22:08:50;100551.6;;;8.69
48628;BMP280;34424;52.234;6.500;2023-12-28T22:13:50;100570.4;;;8.68
48628;BMP280;34424;52.234;6.500;2023-12-28T22:18:50;100552.5;;;8.72
48628;BMP280;34424;52.234;6.500;2023-12-28T22:23:50;100547.4;;;8.83
48628;BMP280;34424;52.234;6.500;2023-12-28T22:28:50;100554.7;;;8.81
48628;BMP280;34424;52.234;6.500;2023-12-28T22:33:50;100557.3;;;8.84
48628;BMP280;34424;52.234;6.500;2023-12-28T22:38:50;100548.2;;;8.88
48628;BMP280;34424;52.234;6.500;2023-12-28T22:43:50;100553.1;;;8.91
48628;BMP280;34424;52.234;6.500;2023-12-28T22:48:50;100559.8;;;8.86
48628;BMP280;34424;52.234;6.500;2023-12-28T22:53:50;100558.9;;;8.9
48628;BMP280;34424;52.234;6.500;2023-12-28T22:58:50;100556.3;;;8.83
48628;BMP280;34424;52.234;6.500;2023-12-28T23:03:50;100539.2;;;8.76
48628;BMP280;34424;52.234;6.500;2023-12-28T23:08:50;100536.9;;;8.68
48628;BMP280;34424;52.234;6.500;2023-12-28T23:13:50;100532.8;;;8.46
48628;BMP280;34424;52.234;6.500;2023-12-28T23:18:50;100514;;;8.37
48628;BMP280;34424;52.234;6.500;2023-12-28T23:23:50;100500.5;;;8.29
48628;BMP280;34424;52.234;6.500;2023-12-28T23:28:50;100517.6;;;8.17
48628;BMP280;34424;52.234;6.500;2023-12-28T23:33:50;100517.8;;;8.31
48628;BMP280;34424;52.234;6.500;2023-12-28T23:38:50;100512.1;;;8.38
48628;BMP280;34424;52.234;6.500;2023-12-28T23:43:50;100512.8;;;8.39
48628;BMP280;34424;52.234;6.500;2023-12-28T23:48:50;100508.9;;;8.33
48628;BMP280;34424;52.234;6.500;2023-12-28T23:53:50;100516.6;;;8.16
48628;BMP280;34424;52.234;6.500;2023-12-28T23:58:50;100514.8;;;8.16
